createdAt,value
2019-01-10T00:00:23.210Z,2.85
2019-01-10T00:02:50.511Z,3.55
2019-01-10T00:05:17.722Z,2.47
2019-01-10T00:07:45.019Z,3.92
2019-01-10T00:10:14.055Z,3.27
2019-01-10T00:12:41.499Z,3.25
2019-01-10T00:15:10.301Z,3.60
2019-01-10T00:17:37.514Z,3.87
2019-01-10T00:20:06.207Z,3.52
2019-01-10T00:22:33.416Z,3.35
2019-01-10T00:25:00.658Z,3.17
2019-01-10T00:27:27.857Z,2.30
2019-01-10T00:29:55.075Z,3.55
2019-01-10T00:32:22.287Z,3.30
2019-01-10T00:34:49.510Z,3.67
2019-01-10T00:37:16.724Z,2.98
2019-01-10T00:39:43.942Z,3.20
2019-01-10T00:42:11.168Z,4.25
2019-01-10T00:44:38.390Z,3.25
2019-01-10T00:47:05.598Z,3.55
2019-01-10T00:49:32.843Z,2.87
2019-01-10T00:52:00.058Z,4.05
2019-01-10T00:54:27.296Z,3.37
2019-01-10T00:56:54.503Z,3.17
2019-01-10T00:59:21.722Z,2.70
2019-01-10T01:01:48.931Z,3.67
2019-01-10T01:04:16.150Z,2.72
2019-01-10T01:06:43.357Z,3.27
2019-01-10T01:09:10.575Z,2.75
2019-01-10T01:11:37.782Z,2.33
2019-01-10T01:14:05.066Z,3.35
2019-01-10T01:16:32.295Z,3.72
2019-01-10T01:18:59.515Z,2.65
2019-01-10T01:21:26.727Z,2.30
2019-01-10T01:23:54.006Z,3.10
2019-01-10T01:26:21.219Z,2.92
2019-01-10T01:28:48.443Z,3.12
2019-01-10T01:31:15.663Z,3.10
2019-01-10T01:33:42.866Z,2.10
2019-01-10T01:36:10.087Z,3.33
2019-01-10T01:38:37.323Z,3.50
2019-01-10T01:41:04.527Z,2.77
2019-01-10T01:43:31.738Z,2.80
2019-01-10T01:45:58.962Z,2.70
2019-01-10T01:48:26.170Z,2.60
2019-01-10T01:50:53.390Z,3.83
2019-01-10T01:53:20.598Z,3.27
2019-01-10T01:55:47.822Z,3.25
2019-01-10T01:58:15.068Z,1.82
2019-01-10T02:00:42.294Z,2.75
2019-01-10T02:03:09.501Z,3.20
2019-01-10T02:05:37.526Z,2.95
2019-01-10T02:08:04.748Z,3.27
2019-01-10T02:10:31.958Z,3.17
2019-01-10T02:12:59.165Z,2.85
2019-01-10T02:15:26.451Z,2.90
2019-01-10T02:17:53.659Z,2.75
2019-01-10T02:20:20.878Z,3.47
2019-01-10T02:22:48.086Z,3.20
2019-01-10T02:25:16.274Z,3.30
2019-01-10T02:27:43.566Z,2.55
2019-01-10T02:30:12.322Z,2.30
2019-01-10T02:32:39.544Z,3.42
2019-01-10T02:35:07.429Z,2.90
2019-01-10T02:37:34.639Z,4.08
2019-01-10T02:40:01.858Z,2.80
2019-01-10T02:42:29.071Z,3.15
2019-01-10T02:44:56.291Z,2.95
2019-01-10T02:47:23.571Z,3.30
2019-01-10T02:49:50.802Z,4.30
2019-01-10T02:52:18.003Z,3.70
2019-01-10T02:54:45.230Z,3.80
2019-01-10T02:57:12.449Z,1.87
2019-01-10T02:59:39.655Z,4.15
2019-01-10T03:02:06.953Z,2.65
2019-01-10T03:04:34.159Z,4.35
2019-01-10T03:07:01.391Z,4.37
2019-01-10T03:09:28.599Z,3.90
2019-01-10T03:11:55.814Z,3.77
2019-01-10T03:14:23.028Z,4.12
2019-01-10T03:16:50.248Z,4.20
2019-01-10T03:19:17.458Z,3.02
2019-01-10T03:21:44.684Z,2.85
2019-01-10T03:24:11.896Z,4.28
2019-01-10T03:26:39.118Z,3.92
2019-01-10T03:29:06.327Z,3.85
2019-01-10T03:31:33.543Z,4.25
2019-01-10T03:34:00.746Z,3.33
2019-01-10T03:36:27.978Z,4.45
2019-01-10T03:38:55.186Z,4.00
2019-01-10T03:41:22.483Z,4.00
2019-01-10T03:43:49.696Z,4.83
2019-01-10T03:46:16.924Z,4.80
2019-01-10T03:48:44.119Z,4.00
2019-01-10T03:51:11.330Z,4.15
2019-01-10T03:53:38.549Z,3.25
2019-01-10T03:56:05.758Z,3.92
2019-01-10T03:58:32.975Z,3.87
2019-01-10T04:01:00.186Z,3.80
2019-01-10T04:03:27.403Z,4.33
2019-01-10T04:05:54.643Z,4.83
2019-01-10T04:08:21.855Z,5.20
2019-01-10T04:10:49.082Z,4.08
2019-01-10T04:13:16.299Z,3.85
2019-01-10T04:15:43.509Z,4.65
2019-01-10T04:18:10.722Z,4.72
2019-01-10T04:20:37.942Z,4.33
2019-01-10T04:23:05.157Z,4.35
2019-01-10T04:25:32.368Z,4.20
2019-01-10T04:27:59.617Z,4.42
2019-01-10T04:30:26.828Z,4.58
2019-01-10T04:32:54.065Z,4.10
2019-01-10T04:35:21.276Z,4.42
2019-01-10T04:37:48.490Z,3.98
2019-01-10T04:40:16.870Z,4.00
2019-01-10T04:42:44.085Z,4.08
2019-01-10T04:45:11.428Z,6.03
2019-01-10T04:47:38.659Z,5.37
2019-01-10T04:50:09.996Z,5.05
2019-01-10T04:52:37.215Z,5.50
2019-01-10T04:55:05.198Z,5.55
2019-01-10T04:57:32.414Z,4.47
2019-01-10T04:59:59.626Z,5.20
2019-01-10T05:02:26.851Z,5.28
2019-01-10T05:04:54.067Z,5.90
2019-01-10T05:07:21.291Z,4.70
2019-01-10T05:09:48.507Z,5.55
2019-01-10T05:12:15.719Z,4.50
2019-01-10T05:14:43.004Z,4.92
2019-01-10T05:17:10.231Z,6.05
2019-01-10T05:19:37.442Z,5.90
2019-01-10T05:22:04.660Z,4.75
2019-01-10T05:24:31.870Z,5.15
2019-01-10T05:26:59.107Z,5.30
2019-01-10T05:29:26.318Z,5.30
2019-01-10T05:31:53.531Z,5.87
2019-01-10T05:34:20.738Z,3.85
2019-01-10T05:36:47.968Z,5.28
2019-01-10T05:39:15.183Z,6.00
2019-01-10T05:41:42.401Z,5.30
2019-01-10T05:44:09.622Z,4.03
2019-01-10T05:46:37.175Z,5.30
2019-01-10T05:49:04.391Z,5.70
2019-01-10T05:51:31.603Z,6.35
2019-01-10T05:53:58.818Z,4.62
2019-01-10T05:56:26.030Z,5.50
2019-01-10T05:58:53.298Z,5.37
2019-01-10T06:01:20.514Z,5.72
2019-01-10T06:03:53.181Z,6.12
2019-01-10T06:06:17.107Z,5.20
2019-01-10T06:08:44.331Z,6.20
2019-01-10T06:11:11.551Z,5.17
2019-01-10T06:13:38.769Z,4.70
2019-01-10T06:16:05.978Z,4.78
2019-01-10T06:18:33.262Z,5.65
2019-01-10T06:21:00.537Z,4.20
2019-01-10T06:23:27.783Z,5.00
2019-01-10T06:25:54.974Z,5.75
2019-01-10T06:28:22.204Z,6.33
2019-01-10T06:30:49.410Z,4.90
2019-01-10T06:33:16.631Z,5.03
2019-01-10T06:35:43.847Z,4.67
2019-01-10T06:38:11.066Z,5.47
2019-01-10T06:40:38.287Z,5.28
2019-01-10T06:43:05.514Z,6.25
2019-01-10T06:45:32.726Z,5.45
2019-01-10T06:47:59.949Z,4.87
2019-01-10T06:50:27.161Z,3.87
2019-01-10T06:52:54.387Z,5.45
2019-01-10T06:55:21.598Z,7.70
2019-01-10T06:57:48.829Z,6.80
2019-01-10T07:00:17.202Z,6.20
2019-01-10T07:02:44.784Z,6.85
2019-01-10T07:05:12.015Z,9.20
2019-01-10T07:07:39.226Z,5.70
2019-01-10T07:10:07.999Z,5.00
2019-01-10T07:12:35.236Z,5.75
2019-01-10T07:15:02.502Z,5.40
2019-01-10T07:17:29.728Z,5.10
2019-01-10T07:19:56.950Z,5.90
2019-01-10T07:22:24.158Z,6.33
2019-01-10T07:24:51.456Z,5.30
2019-01-10T07:27:18.742Z,10.10
2019-01-10T07:29:47.595Z,6.10
2019-01-10T07:32:14.810Z,7.53
2019-01-10T07:34:42.036Z,6.67
2019-01-10T07:37:12.944Z,6.05
2019-01-10T07:39:38.872Z,6.40
2019-01-10T07:42:06.079Z,6.92
2019-01-10T07:44:33.306Z,6.90
2019-01-10T07:47:00.518Z,6.87
2019-01-10T07:49:27.745Z,8.13
2019-01-10T07:51:55.095Z,6.78
2019-01-10T07:54:22.329Z,6.75
2019-01-10T07:56:49.552Z,6.03
2019-01-10T07:59:16.787Z,6.78
2019-01-10T08:01:43.994Z,7.75
2019-01-10T08:04:11.220Z,6.25
2019-01-10T08:06:38.426Z,6.20
2019-01-10T08:09:07.330Z,5.25
2019-01-10T08:11:34.607Z,5.45
2019-01-10T08:14:01.830Z,5.25
2019-01-10T08:16:29.053Z,6.05
2019-01-10T08:18:56.265Z,5.75
2019-01-10T08:21:23.480Z,5.72
2019-01-10T08:23:50.700Z,6.58
2019-01-10T08:26:17.929Z,8.60
2019-01-10T08:28:45.143Z,7.65
2019-01-10T08:31:12.362Z,9.25
2019-01-10T08:33:39.579Z,9.35
2019-01-10T08:36:07.042Z,7.67
2019-01-10T08:38:34.254Z,10.30
2019-01-10T08:41:01.475Z,7.75
2019-01-10T08:43:28.681Z,9.45
2019-01-10T08:45:55.907Z,9.33
2019-01-10T08:48:23.110Z,7.47
2019-01-10T08:50:50.343Z,8.30
2019-01-10T08:53:17.550Z,9.15
2019-01-10T08:55:44.782Z,7.17
2019-01-10T08:58:12.000Z,5.75
2019-01-10T09:00:39.221Z,6.78
2019-01-10T09:03:06.442Z,5.72
2019-01-10T09:05:33.668Z,6.50
2019-01-10T09:08:00.878Z,6.42
2019-01-10T09:10:28.262Z,7.80
2019-01-10T09:12:55.462Z,5.50
2019-01-10T09:15:25.299Z,6.45
2019-01-10T09:17:51.718Z,5.42
2019-01-10T09:20:18.918Z,7.10
2019-01-10T09:22:46.137Z,5.67
2019-01-10T09:25:13.345Z,7.08
2019-01-10T09:27:40.567Z,5.70
2019-01-10T09:30:09.316Z,6.40
2019-01-10T09:32:36.539Z,5.90
2019-01-10T09:35:04.127Z,5.37
2019-01-10T09:37:31.346Z,7.35
2019-01-10T09:39:58.560Z,6.40
2019-01-10T09:42:25.774Z,5.67
2019-01-10T09:44:52.991Z,6.20
2019-01-10T09:47:20.211Z,4.33
2019-01-10T09:49:47.426Z,6.15
2019-01-10T09:52:14.646Z,5.22
2019-01-10T09:54:41.866Z,6.20
2019-01-10T09:57:09.090Z,7.25
2019-01-10T09:59:36.306Z,5.10
2019-01-10T10:02:03.599Z,5.80
2019-01-10T10:04:30.818Z,6.65
2019-01-10T10:06:58.043Z,6.40
2019-01-10T10:09:25.419Z,5.00
2019-01-10T10:11:52.963Z,5.60
2019-01-10T10:14:20.171Z,5.10
2019-01-10T10:16:47.395Z,6.40
2019-01-10T10:19:14.607Z,5.65
2019-01-10T10:21:41.831Z,6.42
2019-01-10T10:24:09.037Z,4.90
2019-01-10T10:26:36.258Z,6.35
2019-01-10T10:29:03.838Z,5.15
2019-01-10T10:31:31.063Z,6.60
2019-01-10T10:33:58.270Z,6.50
2019-01-10T10:36:25.498Z,6.00
2019-01-10T10:38:52.708Z,5.45
2019-01-10T10:41:19.932Z,5.80
2019-01-10T10:43:47.151Z,5.83
2019-01-10T10:46:14.372Z,5.65
2019-01-10T10:48:41.587Z,7.25
2019-01-10T10:51:08.799Z,5.45
2019-01-10T10:53:36.021Z,5.35
2019-01-10T10:56:03.294Z,5.47
2019-01-10T10:58:30.518Z,5.55
2019-01-10T11:00:57.737Z,5.60
2019-01-10T11:03:24.947Z,5.35
2019-01-10T11:05:52.174Z,5.85
2019-01-10T11:08:19.393Z,6.95
2019-01-10T11:10:46.605Z,5.95
2019-01-10T11:13:13.828Z,4.83
2019-01-10T11:15:42.788Z,6.67
2019-01-10T11:18:09.974Z,5.75
2019-01-10T11:20:37.195Z,6.15
2019-01-10T11:23:10.382Z,6.08
2019-01-10T11:25:33.360Z,5.00
2019-01-10T11:28:00.580Z,6.70
2019-01-10T11:30:27.794Z,5.95
2019-01-10T11:32:55.013Z,4.97
2019-01-10T11:35:22.221Z,5.90
2019-01-10T11:37:49.442Z,5.58
2019-01-10T11:40:17.831Z,7.90
2019-01-10T11:42:45.054Z,5.15
2019-01-10T11:45:13.734Z,5.25
2019-01-10T11:47:40.981Z,6.95
2019-01-10T11:50:09.846Z,6.17
2019-01-10T11:52:37.060Z,5.92
2019-01-10T11:55:05.547Z,6.75
2019-01-10T11:57:32.762Z,5.15
2019-01-10T11:59:59.978Z,4.90
2019-01-10T12:02:36.077Z,5.60
2019-01-10T12:04:56.151Z,5.28
2019-01-10T12:07:23.374Z,5.60
2019-01-10T12:09:50.590Z,5.55
2019-01-10T12:12:17.810Z,4.87
2019-01-10T12:14:45.023Z,5.97
2019-01-10T12:17:12.246Z,6.33
2019-01-10T12:19:39.466Z,6.10
2019-01-10T12:22:06.687Z,6.97
2019-01-10T12:24:33.902Z,5.17
2019-01-10T12:27:01.127Z,6.10
2019-01-10T12:29:36.101Z,8.63
2019-01-10T12:31:57.286Z,6.37
2019-01-10T12:34:24.507Z,6.12
2019-01-10T12:37:00.007Z,5.92
2019-01-10T12:39:20.658Z,5.50
2019-01-10T12:41:47.871Z,4.30
2019-01-10T12:44:15.097Z,5.47
2019-01-10T12:46:42.302Z,5.12
2019-01-10T12:49:11.399Z,6.33
2019-01-10T12:51:38.459Z,4.42
2019-01-10T12:54:05.677Z,5.22
2019-01-10T12:56:32.891Z,4.72
2019-01-10T12:59:00.118Z,4.58
2019-01-10T13:01:27.343Z,5.12
2019-01-10T13:03:54.573Z,5.33
2019-01-10T13:06:21.788Z,5.17
2019-01-10T13:08:49.371Z,5.72
2019-01-10T13:11:16.595Z,4.92
2019-01-10T13:13:44.639Z,5.83
2019-01-10T13:16:12.127Z,4.95
2019-01-10T13:18:39.334Z,5.75
2019-01-10T13:21:06.559Z,4.95
2019-01-10T13:23:33.779Z,3.92
2019-01-10T13:26:00.994Z,4.97
2019-01-10T13:28:28.215Z,4.40
2019-01-10T13:30:55.431Z,5.50
2019-01-10T13:33:22.656Z,5.47
2019-01-10T13:35:49.955Z,5.33
2019-01-10T13:38:17.169Z,4.78
2019-01-10T13:40:44.450Z,7.25
2019-01-10T13:43:11.709Z,6.37
2019-01-10T13:45:46.012Z,7.62
2019-01-10T13:48:08.426Z,7.37
2019-01-10T13:50:35.656Z,10.72
2019-01-10T13:53:02.866Z,10.15
2019-01-10T13:55:30.095Z,8.58
2019-01-10T13:57:57.378Z,10.13
2019-01-10T14:00:28.019Z,5.85
2019-01-10T14:02:55.298Z,4.85
2019-01-10T14:05:22.519Z,4.45
2019-01-10T14:07:49.822Z,5.45
2019-01-10T14:10:17.625Z,5.53
2019-01-10T14:12:45.209Z,4.40
2019-01-10T14:15:14.675Z,5.40
2019-01-10T14:17:41.882Z,5.40
2019-01-10T14:20:09.979Z,5.12
2019-01-10T14:22:37.192Z,4.28
2019-01-10T14:25:05.273Z,4.22
2019-01-10T14:27:32.560Z,5.40
2019-01-10T14:29:59.858Z,4.67
2019-01-10T14:32:27.076Z,4.83
2019-01-10T14:34:54.295Z,4.28
2019-01-10T14:37:21.843Z,4.78
2019-01-10T14:39:49.063Z,5.20
2019-01-10T14:42:16.279Z,5.20
2019-01-10T14:44:43.498Z,4.15
2019-01-10T14:47:10.714Z,4.55
2019-01-10T14:49:37.985Z,6.33
2019-01-10T14:52:05.251Z,5.00
2019-01-10T14:54:32.471Z,3.80
2019-01-10T14:56:59.688Z,4.12
2019-01-10T14:59:26.898Z,4.15
2019-01-10T15:01:54.118Z,4.62
2019-01-10T15:04:21.325Z,5.20
2019-01-10T15:06:48.542Z,4.65
2019-01-10T15:09:15.875Z,4.85
2019-01-10T15:11:43.135Z,3.80
2019-01-10T15:14:16.069Z,4.03
2019-01-10T15:16:39.282Z,4.37
2019-01-10T15:19:06.758Z,4.40
2019-01-10T15:21:33.976Z,3.72
2019-01-10T15:24:01.187Z,4.45
2019-01-10T15:26:28.413Z,4.15
2019-01-10T15:28:55.619Z,4.10
2019-01-10T15:31:22.843Z,4.53
2019-01-10T15:33:50.062Z,5.70
2019-01-10T15:36:17.290Z,4.00
2019-01-10T15:38:44.498Z,3.67
2019-01-10T15:41:11.722Z,4.97
2019-01-10T15:43:38.932Z,4.37
2019-01-10T15:46:06.146Z,4.15
2019-01-10T15:48:33.363Z,3.87
2019-01-10T15:51:00.586Z,5.22
2019-01-10T15:53:27.803Z,10.13
2019-01-10T15:55:55.026Z,8.63
2019-01-10T15:58:22.252Z,7.97
2019-01-10T16:00:49.475Z,7.90
2019-01-10T16:03:16.687Z,15.90
2019-01-10T16:05:43.916Z,11.63
2019-01-10T16:08:11.131Z,11.55
2019-01-10T16:10:38.365Z,7.08
2019-01-10T16:13:05.587Z,8.48
2019-01-10T16:15:32.811Z,5.97
2019-01-10T16:18:00.013Z,4.00
2019-01-10T16:20:27.235Z,4.10
2019-01-10T16:22:54.454Z,5.17
2019-01-10T16:25:21.942Z,5.40
2019-01-10T16:27:49.231Z,6.85
2019-01-10T16:30:23.538Z,3.98
2019-01-10T16:32:50.754Z,4.30
2019-01-10T16:35:17.958Z,3.62
2019-01-10T16:37:45.178Z,3.12
2019-01-10T16:40:13.779Z,3.58
2019-01-10T16:42:41.015Z,4.92
2019-01-10T16:45:09.758Z,3.67
2019-01-10T16:47:36.978Z,3.17
2019-01-10T16:50:05.736Z,3.80
2019-01-10T16:52:32.954Z,4.45
2019-01-10T16:55:00.169Z,4.60
2019-01-10T16:57:27.386Z,3.52
2019-01-10T16:59:54.613Z,4.10
2019-01-10T17:02:21.839Z,3.58
2019-01-10T17:04:49.055Z,4.62
2019-01-10T17:07:16.274Z,5.28
2019-01-10T17:09:43.483Z,4.53
2019-01-10T17:12:10.702Z,2.90
2019-01-10T17:14:37.906Z,2.52
2019-01-10T17:17:05.122Z,3.70
2019-01-10T17:19:32.330Z,3.92
2019-01-10T17:21:59.563Z,2.65
2019-01-10T17:24:26.774Z,2.50
2019-01-10T17:26:54.002Z,3.02
2019-01-10T17:29:21.214Z,2.50
2019-01-10T17:31:48.435Z,2.50
2019-01-10T17:34:15.739Z,3.00
2019-01-10T17:36:42.945Z,4.45
2019-01-10T17:39:10.158Z,4.95
2019-01-10T17:41:37.374Z,5.45
2019-01-10T17:44:04.651Z,6.65
2019-01-10T17:46:31.887Z,5.00
2019-01-10T17:48:59.111Z,5.35
2019-01-10T17:51:26.323Z,4.67
2019-01-10T17:53:53.614Z,5.58
2019-01-10T17:56:20.945Z,3.80
2019-01-10T17:58:48.226Z,3.65
2019-01-10T18:01:15.440Z,2.98
2019-01-10T18:03:42.645Z,3.72
2019-01-10T18:06:09.854Z,3.52
2019-01-10T18:08:37.077Z,3.62
2019-01-10T18:11:04.284Z,3.70
2019-01-10T18:13:31.498Z,3.95
2019-01-10T18:15:58.719Z,3.75
2019-01-10T18:18:25.950Z,3.27
2019-01-10T18:20:53.167Z,3.50
2019-01-10T18:23:20.387Z,2.98
2019-01-10T18:25:47.602Z,3.40
2019-01-10T18:28:14.825Z,2.55
2019-01-10T18:30:43.439Z,3.08
2019-01-10T18:33:10.834Z,3.70
2019-01-10T18:35:38.035Z,3.62
2019-01-10T18:38:05.255Z,3.62
2019-01-10T18:40:32.471Z,4.58
2019-01-10T18:42:59.694Z,3.30
2019-01-10T18:45:28.171Z,2.67
2019-01-10T18:47:57.373Z,3.00
2019-01-10T18:50:24.608Z,4.30
2019-01-10T18:52:51.894Z,5.62
2019-01-10T18:55:19.102Z,5.10
2019-01-10T18:57:46.322Z,4.00
2019-01-10T19:00:15.398Z,4.30
2019-01-10T19:02:42.639Z,5.12
2019-01-10T19:05:09.915Z,4.37
2019-01-10T19:07:37.129Z,4.42
2019-01-10T19:10:05.910Z,4.70
2019-01-10T19:12:33.129Z,4.45
2019-01-10T19:15:00.343Z,5.22
2019-01-10T19:17:27.560Z,5.37
2019-01-10T19:19:54.778Z,4.25
2019-01-10T19:22:23.310Z,5.28
2019-01-10T19:24:50.593Z,4.50
2019-01-10T19:27:17.803Z,4.03
2019-01-10T19:29:45.027Z,4.30
2019-01-10T19:32:12.252Z,5.62
2019-01-10T19:34:39.471Z,5.62
2019-01-10T19:37:06.687Z,4.60
2019-01-10T19:39:33.916Z,5.20
2019-01-10T19:42:01.114Z,4.42
2019-01-10T19:44:28.336Z,4.25
2019-01-10T19:46:55.543Z,4.87
2019-01-10T19:49:22.758Z,4.17
2019-01-10T19:51:49.966Z,3.60
2019-01-10T19:54:17.988Z,4.00
2019-01-10T19:56:45.374Z,4.45
2019-01-10T19:59:12.603Z,4.35
2019-01-10T20:01:39.810Z,4.50
2019-01-10T20:04:07.048Z,4.80
2019-01-10T20:06:34.255Z,6.30
2019-01-10T20:09:01.470Z,4.45
2019-01-10T20:11:28.678Z,6.00
2019-01-10T20:13:55.911Z,6.37
2019-01-10T20:16:23.114Z,4.30
2019-01-10T20:18:50.343Z,4.40
2019-01-10T20:21:17.551Z,3.95
2019-01-10T20:23:44.771Z,2.70
2019-01-10T20:26:11.975Z,4.05
2019-01-10T20:28:39.198Z,3.40
2019-01-10T20:31:06.403Z,3.50
2019-01-10T20:33:33.622Z,3.20
2019-01-10T20:36:00.831Z,3.02
2019-01-10T20:38:28.050Z,3.45
2019-01-10T20:40:55.262Z,3.05
2019-01-10T20:43:22.481Z,3.98
2019-01-10T20:45:49.696Z,4.53
2019-01-10T20:48:22.437Z,4.20
2019-01-10T20:50:45.846Z,4.00
2019-01-10T20:53:13.058Z,4.55
2019-01-10T20:55:40.270Z,3.85
2019-01-10T20:58:07.958Z,4.22
2019-01-10T21:00:35.238Z,3.83
2019-01-10T21:03:02.452Z,4.58
2019-01-10T21:05:29.744Z,4.28
2019-01-10T21:07:56.954Z,4.15
2019-01-10T21:10:24.255Z,5.65
2019-01-10T21:12:51.464Z,5.28
2019-01-10T21:15:22.389Z,5.35
2019-01-10T21:17:49.614Z,5.95
2019-01-10T21:20:16.831Z,5.47
2019-01-10T21:22:44.035Z,5.15
2019-01-10T21:25:11.726Z,5.10
2019-01-10T21:27:39.175Z,4.87
2019-01-10T21:30:10.734Z,4.30
2019-01-10T21:32:40.906Z,4.30
2019-01-10T21:35:07.367Z,4.87
2019-01-10T21:37:34.583Z,5.03
2019-01-10T21:40:01.798Z,6.12
2019-01-10T21:42:29.014Z,6.30
2019-01-10T21:44:56.243Z,4.85
2019-01-10T21:47:24.328Z,4.85
2019-01-10T21:49:51.742Z,4.90
2019-01-10T21:52:18.958Z,3.92
2019-01-10T21:54:46.186Z,5.42
2019-01-10T21:57:13.403Z,4.50
2019-01-10T21:59:40.622Z,5.60
2019-01-10T22:02:07.903Z,5.35
2019-01-10T22:04:35.122Z,5.25
2019-01-10T22:07:02.331Z,4.40
2019-01-10T22:09:30.366Z,4.28
2019-01-10T22:11:57.845Z,5.45
2019-01-10T22:14:25.049Z,5.75
2019-01-10T22:16:52.283Z,4.30
2019-01-10T22:19:19.503Z,4.70
2019-01-10T22:21:46.723Z,3.92
2019-01-10T22:24:13.936Z,3.60
2019-01-10T22:26:41.150Z,5.08
2019-01-10T22:29:08.358Z,4.08
2019-01-10T22:31:35.579Z,4.10
2019-01-10T22:34:02.787Z,5.58
2019-01-10T22:36:30.010Z,4.50
2019-01-10T22:38:57.222Z,4.05
2019-01-10T22:41:24.443Z,3.37
2019-01-10T22:43:51.645Z,3.58
2019-01-10T22:46:18.865Z,3.27
2019-01-10T22:48:47.926Z,4.17
2019-01-10T22:51:15.043Z,5.00
2019-01-10T22:53:42.253Z,3.27
2019-01-10T22:56:09.466Z,3.80
2019-01-10T22:58:36.704Z,4.78
2019-01-10T23:01:07.001Z,4.40
2019-01-10T23:03:35.250Z,3.95
2019-01-10T23:06:02.702Z,4.40
2019-01-10T23:08:30.032Z,4.33
2019-01-10T23:10:57.251Z,4.80
2019-01-10T23:13:24.458Z,4.28
2019-01-10T23:15:51.674Z,3.30
2019-01-10T23:18:19.118Z,4.12
2019-01-10T23:20:49.511Z,4.58
2019-01-10T23:23:16.793Z,3.67
2019-01-10T23:25:47.182Z,4.62
2019-01-10T23:28:14.460Z,3.45
2019-01-10T23:30:46.130Z,4.08
2019-01-10T23:33:13.371Z,4.60
2019-01-10T23:35:40.601Z,5.10
2019-01-10T23:38:09.008Z,4.50
2019-01-10T23:40:36.510Z,4.33
2019-01-10T23:43:03.797Z,5.47
2019-01-10T23:45:31.014Z,4.35
2019-01-10T23:47:58.240Z,4.55
2019-01-10T23:50:25.457Z,5.10
2019-01-10T23:52:52.682Z,4.15
2019-01-10T23:55:19.890Z,4.30
2019-01-10T23:57:47.126Z,5.30
